Terminal Aerodrome Forecast
Issued by NWS Tulsa, OK

Home | Current Version | Previous Version | Text Only | Print | Product List | Glossary On
Versions: 1 2 3 4 5 6 7 8 9 10 11 12 13 14 15 16 17 18 19 20 21 22 23
000
FTUS44 KTSA 252320
TAFFSM
TAF
KFSM 252320Z 2600/2624 20004KT P6SM FEW045
     FM260600 11004KT P6SM OVC015
     FM260900 09007KT 5SM BR OVC007
     FM261400 15008KT P6SM OVC015
     FM261800 15010G18KT P6SM BKN025
     FM262000 15012G20KT P6SM BKN035=

USA.gov is the U.S. government's official web portal to all federal, state and local government web resources and services.